sensor_id;sensor_type;location;lat;lon;timestamp;pressure;altitude;pressure_sealevel;temperature
14023;BMP180;7086;48.116;11.580;2023-04-25T00:00:43;94669.00;;;13.10
14023;BMP180;7086;48.116;11.580;2023-04-25T00:03:10;94674.00;;;13.10
14023;BMP180;7086;48.116;11.580;2023-04-25T00:05:37;94680.00;;;13.10
14023;BMP180;7086;48.116;11.580;2023-04-25T00:08:04;94659.00;;;13.10
14023;BMP180;7086;48.116;11.580;2023-04-25T00:10:32;94674.00;;;13.10
14023;BMP180;7086;48.116;11.580;2023-04-25T00:12:59;94658.00;;;13.20
14023;BMP180;7086;48.116;11.580;2023-04-25T00:15:27;94672.00;;;13.20
14023;BMP180;7086;48.116;11.580;2023-04-25T00:17:56;94683.00;;;13.20
14023;BMP180;7086;48.116;11.580;2023-04-25T00:20:23;94648.00;;;13.20
14023;BMP180;7086;48.116;11.580;2023-04-25T00:22:50;94689.00;;;13.20
14023;BMP180;7086;48.116;11.580;2023-04-25T00:25:18;94689.00;;;13.30
14023;BMP180;7086;48.116;11.580;2023-04-25T00:27:46;94685.00;;;13.30
14023;BMP180;7086;48.116;11.580;2023-04-25T00:30:14;94678.00;;;13.30
14023;BMP180;7086;48.116;11.580;2023-04-25T00:32:41;94671.00;;;13.30
14023;BMP180;7086;48.116;11.580;2023-04-25T00:35:08;94682.00;;;13.30
14023;BMP180;7086;48.116;11.580;2023-04-25T00:37:35;94688.00;;;13.30
14023;BMP180;7086;48.116;11.580;2023-04-25T00:40:05;94675.00;;;13.30
14023;BMP180;7086;48.116;11.580;2023-04-25T00:42:33;94675.00;;;13.30
14023;BMP180;7086;48.116;11.580;2023-04-25T00:45:05;94634.00;;;13.30
14023;BMP180;7086;48.116;11.580;2023-04-25T00:47:33;94650.00;;;13.30
14023;BMP180;7086;48.116;11.580;2023-04-25T00:50:00;94666.00;;;13.20
14023;BMP180;7086;48.116;11.580;2023-04-25T00:52:27;94671.00;;;13.30
14023;BMP180;7086;48.116;11.580;2023-04-25T00:54:54;94676.00;;;13.30
14023;BMP180;7086;48.116;11.580;2023-04-25T00:57:21;94667.00;;;13.30
14023;BMP180;7086;48.116;11.580;2023-04-25T00:59:50;94538.00;;;13.20
14023;BMP180;7086;48.116;11.580;2023-04-25T01:02:19;94650.00;;;13.20
14023;BMP180;7086;48.116;11.580;2023-04-25T01:04:47;94664.00;;;13.20
14023;BMP180;7086;48.116;11.580;2023-04-25T01:07:15;94629.00;;;13.20
14023;BMP180;7086;48.116;11.580;2023-04-25T01:09:41;94635.00;;;13.20
14023;BMP180;7086;48.116;11.580;2023-04-25T01:12:08;94649.00;;;13.10
14023;BMP180;7086;48.116;11.580;2023-04-25T01:14:35;94596.00;;;13.10
14023;BMP180;7086;48.116;11.580;2023-04-25T01:17:02;94662.00;;;13.10
14023;BMP180;7086;48.116;11.580;2023-04-25T01:19:30;94660.00;;;13.10
14023;BMP180;7086;48.116;11.580;2023-04-25T01:21:58;94654.00;;;13.10
14023;BMP180;7086;48.116;11.580;2023-04-25T01:24:26;94604.00;;;13.00
14023;BMP180;7086;48.116;11.580;2023-04-25T01:26:53;94645.00;;;13.00
14023;BMP180;7086;48.116;11.580;2023-04-25T01:29:22;94654.00;;;13.00
14023;BMP180;7086;48.116;11.580;2023-04-25T01:31:49;94653.00;;;13.00
14023;BMP180;7086;48.116;11.580;2023-04-25T01:34:17;94656.00;;;13.00
14023;BMP180;7086;48.116;11.580;2023-04-25T01:36:44;94635.00;;;12.90
14023;BMP180;7086;48.116;11.580;2023-04-25T01:39:13;94681.00;;;12.90
14023;BMP180;7086;48.116;11.580;2023-04-25T01:41:40;94656.00;;;12.90
14023;BMP180;7086;48.116;11.580;2023-04-25T01:44:06;94653.00;;;12.90
14023;BMP180;7086;48.116;11.580;2023-04-25T01:46:34;94658.00;;;12.90
14023;BMP180;7086;48.116;11.580;2023-04-25T01:49:01;94658.00;;;12.80
14023;BMP180;7086;48.116;11.580;2023-04-25T01:51:28;94652.00;;;12.80
14023;BMP180;7086;48.116;11.580;2023-04-25T01:53:55;94627.00;;;12.80
14023;BMP180;7086;48.116;11.580;2023-04-25T01:56:24;94654.00;;;12.80
14023;BMP180;7086;48.116;11.580;2023-04-25T01:58:51;94658.00;;;12.70
14023;BMP180;7086;48.116;11.580;2023-04-25T02:01:18;94653.00;;;12.60
14023;BMP180;7086;48.116;11.580;2023-04-25T02:03:45;94649.00;;;12.70
14023;BMP180;7086;48.116;11.580;2023-04-25T02:06:11;94635.00;;;12.60
14023;BMP180;7086;48.116;11.580;2023-04-25T02:08:38;94636.00;;;12.60
14023;BMP180;7086;48.116;11.580;2023-04-25T02:11:05;94642.00;;;12.60
14023;BMP180;7086;48.116;11.580;2023-04-25T02:13:33;94639.00;;;12.60
14023;BMP180;7086;48.116;11.580;2023-04-25T02:16:00;94651.00;;;12.50
14023;BMP180;7086;48.116;11.580;2023-04-25T02:18:27;94569.00;;;12.50
14023;BMP180;7086;48.116;11.580;2023-04-25T02:20:54;94633.00;;;12.50
14023;BMP180;7086;48.116;11.580;2023-04-25T02:23:21;94649.00;;;12.50
14023;BMP180;7086;48.116;11.580;2023-04-25T02:25:48;94653.00;;;12.50
14023;BMP180;7086;48.116;11.580;2023-04-25T02:28:15;94670.00;;;12.50
14023;BMP180;7086;48.116;11.580;2023-04-25T02:30:43;94638.00;;;12.50
14023;BMP180;7086;48.116;11.580;2023-04-25T02:33:10;94648.00;;;12.40
14023;BMP180;7086;48.116;11.580;2023-04-25T02:35:37;94641.00;;;12.50
14023;BMP180;7086;48.116;11.580;2023-04-25T02:38:03;94641.00;;;12.40
14023;BMP180;7086;48.116;11.580;2023-04-25T02:40:30;94637.00;;;12.40
14023;BMP180;7086;48.116;11.580;2023-04-25T02:42:57;94629.00;;;12.40
14023;BMP180;7086;48.116;11.580;2023-04-25T02:45:24;94631.00;;;12.50
14023;BMP180;7086;48.116;11.580;2023-04-25T02:47:52;94637.00;;;12.40
14023;BMP180;7086;48.116;11.580;2023-04-25T02:50:19;94615.00;;;12.50
14023;BMP180;7086;48.116;11.580;2023-04-25T02:52:46;94639.00;;;12.50
14023;BMP180;7086;48.116;11.580;2023-04-25T02:55:12;94599.00;;;12.40
14023;BMP180;7086;48.116;11.580;2023-04-25T02:57:39;94640.00;;;12.50
14023;BMP180;7086;48.116;11.580;2023-04-25T03:00:07;94635.00;;;12.50
14023;BMP180;7086;48.116;11.580;2023-04-25T03:02:37;94631.00;;;12.40
14023;BMP180;7086;48.116;11.580;2023-04-25T03:05:05;94657.00;;;12.50
14023;BMP180;7086;48.116;11.580;2023-04-25T03:07:32;94633.00;;;12.60
14023;BMP180;7086;48.116;11.580;2023-04-25T03:09:59;94644.00;;;12.60
14023;BMP180;7086;48.116;11.580;2023-04-25T03:12:26;94643.00;;;12.60
14023;BMP180;7086;48.116;11.580;2023-04-25T03:14:52;94563.00;;;12.60
14023;BMP180;7086;48.116;11.580;2023-04-25T03:17:19;94612.00;;;12.60
14023;BMP180;7086;48.116;11.580;2023-04-25T03:19:46;94644.00;;;12.60
14023;BMP180;7086;48.116;11.580;2023-04-25T03:22:14;94630.00;;;12.50
14023;BMP180;7086;48.116;11.580;2023-04-25T03:24:41;94624.00;;;12.60
14023;BMP180;7086;48.116;11.580;2023-04-25T03:27:09;94624.00;;;12.60
14023;BMP180;7086;48.116;11.580;2023-04-25T03:29:35;94627.00;;;12.60
14023;BMP180;7086;48.116;11.580;2023-04-25T03:32:02;94606.00;;;12.50
14023;BMP180;7086;48.116;11.580;2023-04-25T03:34:29;94610.00;;;12.50
14023;BMP180;7086;48.116;11.580;2023-04-25T03:36:56;94622.00;;;12.50
14023;BMP180;7086;48.116;11.580;2023-04-25T03:39:24;94623.00;;;12.50
14023;BMP180;7086;48.116;11.580;2023-04-25T03:41:51;94621.00;;;12.50
14023;BMP180;7086;48.116;11.580;2023-04-25T03:44:17;94597.00;;;12.50
14023;BMP180;7086;48.116;11.580;2023-04-25T03:46:44;94651.00;;;12.40
14023;BMP180;7086;48.116;11.580;2023-04-25T03:49:11;94630.00;;;12.60
14023;BMP180;7086;48.116;11.580;2023-04-25T03:51:38;94538.00;;;12.60
14023;BMP180;7086;48.116;11.580;2023-04-25T03:54:04;94604.00;;;12.60
14023;BMP180;7086;48.116;11.580;2023-04-25T03:56:34;94625.00;;;12.50
14023;BMP180;7086;48.116;11.580;2023-04-25T03:59:00;94614.00;;;12.50
14023;BMP180;7086;48.116;11.580;2023-04-25T04:01:27;94630.00;;;12.50
14023;BMP180;7086;48.116;11.580;2023-04-25T04:03:54;94611.00;;;12.40
14023;BMP180;7086;48.116;11.580;2023-04-25T04:06:21;94618.00;;;12.50
14023;BMP180;7086;48.116;11.580;2023-04-25T04:08:47;94599.00;;;12.40
14023;BMP180;7086;48.116;11.580;2023-04-25T04:11:14;94612.00;;;12.40
14023;BMP180;7086;48.116;11.580;2023-04-25T04:13:43;94626.00;;;12.40
14023;BMP180;7086;48.116;11.580;2023-04-25T04:16:09;94519.00;;;12.30
14023;BMP180;7086;48.116;11.580;2023-04-25T04:18:36;94631.00;;;12.40
14023;BMP180;7086;48.116;11.580;2023-04-25T04:21:03;94632.00;;;12.40
14023;BMP180;7086;48.116;11.580;2023-04-25T04:23:30;94597.00;;;12.40
14023;BMP180;7086;48.116;11.580;2023-04-25T04:25:57;94578.00;;;12.40
14023;BMP180;7086;48.116;11.580;2023-04-25T04:28:24;94610.00;;;12.40
14023;BMP180;7086;48.116;11.580;2023-04-25T04:30:53;94623.00;;;12.40
14023;BMP180;7086;48.116;11.580;2023-04-25T04:33:20;94586.00;;;12.40
14023;BMP180;7086;48.116;11.580;2023-04-25T04:35:51;94615.00;;;12.30
14023;BMP180;7086;48.116;11.580;2023-04-25T04:38:18;94545.00;;;12.40
14023;BMP180;7086;48.116;11.580;2023-04-25T04:40:47;94626.00;;;12.40
14023;BMP180;7086;48.116;11.580;2023-04-25T04:43:14;94641.00;;;12.30
14023;BMP180;7086;48.116;11.580;2023-04-25T04:45:42;94611.00;;;12.40
14023;BMP180;7086;48.116;11.580;2023-04-25T04:48:11;94651.00;;;12.30
14023;BMP180;7086;48.116;11.580;2023-04-25T04:50:39;94642.00;;;12.20
14023;BMP180;7086;48.116;11.580;2023-04-25T04:53:07;94638.00;;;12.30
14023;BMP180;7086;48.116;11.580;2023-04-25T04:55:34;94634.00;;;12.30
14023;BMP180;7086;48.116;11.580;2023-04-25T04:58:00;94629.00;;;12.30
14023;BMP180;7086;48.116;11.580;2023-04-25T05:00:27;94620.00;;;12.40
14023;BMP180;7086;48.116;11.580;2023-04-25T05:02:54;94617.00;;;12.40
14023;BMP180;7086;48.116;11.580;2023-04-25T05:05:23;94612.00;;;12.30
14023;BMP180;7086;48.116;11.580;2023-04-25T05:07:49;94619.00;;;12.40
14023;BMP180;7086;48.116;11.580;2023-04-25T05:10:17;94547.00;;;12.40
14023;BMP180;7086;48.116;11.580;2023-04-25T05:12:43;94545.00;;;12.50
14023;BMP180;7086;48.116;11.580;2023-04-25T05:15:10;94600.00;;;12.50
14023;BMP180;7086;48.116;11.580;2023-04-25T05:17:37;94621.00;;;12.60
14023;BMP180;7086;48.116;11.580;2023-04-25T05:20:05;94589.00;;;12.60
14023;BMP180;7086;48.116;11.580;2023-04-25T05:22:34;94619.00;;;12.70
14023;BMP180;7086;48.116;11.580;2023-04-25T05:25:01;94618.00;;;12.70
14023;BMP180;7086;48.116;11.580;2023-04-25T05:27:29;94619.00;;;12.60
14023;BMP180;7086;48.116;11.580;2023-04-25T05:29:55;94621.00;;;12.60
14023;BMP180;7086;48.116;11.580;2023-04-25T05:32:22;94615.00;;;12.70
14023;BMP180;7086;48.116;11.580;2023-04-25T05:34:50;94601.00;;;12.80
14023;BMP180;7086;48.116;11.580;2023-04-25T05:37:17;94625.00;;;12.80
14023;BMP180;7086;48.116;11.580;2023-04-25T05:39:45;94611.00;;;12.80
14023;BMP180;7086;48.116;11.580;2023-04-25T05:42:12;94614.00;;;12.80
14023;BMP180;7086;48.116;11.580;2023-04-25T05:44:39;94612.00;;;12.70
14023;BMP180;7086;48.116;11.580;2023-04-25T05:47:05;94613.00;;;12.80
14023;BMP180;7086;48.116;11.580;2023-04-25T05:49:33;94558.00;;;12.80
14023;BMP180;7086;48.116;11.580;2023-04-25T05:52:00;94605.00;;;12.90
14023;BMP180;7086;48.116;11.580;2023-04-25T05:54:27;94571.00;;;13.00
14023;BMP180;7086;48.116;11.580;2023-04-25T05:56:56;94610.00;;;13.00
14023;BMP180;7086;48.116;11.580;2023-04-25T05:59:23;94642.00;;;13.10
14023;BMP180;7086;48.116;11.580;2023-04-25T06:01:49;94619.00;;;13.10
14023;BMP180;7086;48.116;11.580;2023-04-25T06:04:17;94563.00;;;13.20
14023;BMP180;7086;48.116;11.580;2023-04-25T06:06:43;94606.00;;;13.20
14023;BMP180;7086;48.116;11.580;2023-04-25T06:09:10;94640.00;;;13.10
14023;BMP180;7086;48.116;11.580;2023-04-25T06:11:37;94637.00;;;13.10
14023;BMP180;7086;48.116;11.580;2023-04-25T06:14:05;94643.00;;;13.00
14023;BMP180;7086;48.116;11.580;2023-04-25T06:16:32;94610.00;;;13.00
14023;BMP180;7086;48.116;11.580;2023-04-25T06:18:59;94632.00;;;12.90
14023;BMP180;7086;48.116;11.580;2023-04-25T06:21:26;94627.00;;;12.80
14023;BMP180;7086;48.116;11.580;2023-04-25T06:23:53;94633.00;;;12.60
14023;BMP180;7086;48.116;11.580;2023-04-25T06:26:20;94642.00;;;12.50
14023;BMP180;7086;48.116;11.580;2023-04-25T06:28:47;94637.00;;;12.00
14023;BMP180;7086;48.116;11.580;2023-04-25T06:31:15;94596.00;;;12.40
14023;BMP180;7086;48.116;11.580;2023-04-25T06:33:42;94630.00;;;12.30
14023;BMP180;7086;48.116;11.580;2023-04-25T06:36:09;94595.00;;;12.20
14023;BMP180;7086;48.116;11.580;2023-04-25T06:38:36;94609.00;;;12.10
14023;BMP180;7086;48.116;11.580;2023-04-25T06:41:03;94629.00;;;12.10
14023;BMP180;7086;48.116;11.580;2023-04-25T06:43:30;94642.00;;;12.20
14023;BMP180;7086;48.116;11.580;2023-04-25T06:45:58;94610.00;;;12.30
14023;BMP180;7086;48.116;11.580;2023-04-25T06:48:27;94629.00;;;12.40
14023;BMP180;7086;48.116;11.580;2023-04-25T06:50:54;94634.00;;;12.60
14023;BMP180;7086;48.116;11.580;2023-04-25T06:53:21;94625.00;;;12.70
14023;BMP180;7086;48.116;11.580;2023-04-25T06:55:48;94621.00;;;12.80
14023;BMP180;7086;48.116;11.580;2023-04-25T06:58:15;94585.00;;;12.90
14023;BMP180;7086;48.116;11.580;2023-04-25T07:00:42;94627.00;;;13.00
14023;BMP180;7086;48.116;11.580;2023-04-25T07:03:09;94625.00;;;13.00
14023;BMP180;7086;48.116;11.580;2023-04-25T07:05:37;94630.00;;;13.30
14023;BMP180;7086;48.116;11.580;2023-04-25T07:08:04;94621.00;;;13.40
14023;BMP180;7086;48.116;11.580;2023-04-25T07:10:31;94624.00;;;13.50
14023;BMP180;7086;48.116;11.580;2023-04-25T07:12:58;94626.00;;;13.60
14023;BMP180;7086;48.116;11.580;2023-04-25T07:15:25;94629.00;;;13.60
14023;BMP180;7086;48.116;11.580;2023-04-25T07:17:51;94639.00;;;13.70
14023;BMP180;7086;48.116;11.580;2023-04-25T07:20:18;94540.00;;;13.70
14023;BMP180;7086;48.116;11.580;2023-04-25T07:22:47;94623.00;;;13.80
14023;BMP180;7086;48.116;11.580;2023-04-25T07:25:15;94604.00;;;13.80
14023;BMP180;7086;48.116;11.580;2023-04-25T07:27:42;94621.00;;;13.80
14023;BMP180;7086;48.116;11.580;2023-04-25T07:30:10;94624.00;;;13.80
14023;BMP180;7086;48.116;11.580;2023-04-25T07:32:37;94614.00;;;13.90
14023;BMP180;7086;48.116;11.580;2023-04-25T07:35:05;94619.00;;;14.00
14023;BMP180;7086;48.116;11.580;2023-04-25T07:37:33;94612.00;;;14.10
14023;BMP180;7086;48.116;11.580;2023-04-25T07:40:02;94600.00;;;14.30
14023;BMP180;7086;48.116;11.580;2023-04-25T07:42:30;94568.00;;;14.50
14023;BMP180;7086;48.116;11.580;2023-04-25T07:44:57;94570.00;;;14.70
14023;BMP180;7086;48.116;11.580;2023-04-25T07:47:24;94584.00;;;15.00
14023;BMP180;7086;48.116;11.580;2023-04-25T07:49:50;94610.00;;;15.30
14023;BMP180;7086;48.116;11.580;2023-04-25T07:52:17;94599.00;;;15.70
14023;BMP180;7086;48.116;11.580;2023-04-25T07:54:44;94604.00;;;16.20
14023;BMP180;7086;48.116;11.580;2023-04-25T07:57:14;94609.00;;;16.90
14023;BMP180;7086;48.116;11.580;2023-04-25T07:59:42;94609.00;;;17.70
14023;BMP180;7086;48.116;11.580;2023-04-25T08:02:09;94570.00;;;18.40
14023;BMP180;7086;48.116;11.580;2023-04-25T08:04:36;94591.00;;;19.00
14023;BMP180;7086;48.116;11.580;2023-04-25T08:07:02;94599.00;;;19.70
14023;BMP180;7086;48.116;11.580;2023-04-25T08:09:29;94609.00;;;20.30
14023;BMP180;7086;48.116;11.580;2023-04-25T08:11:59;94599.00;;;20.80
14023;BMP180;7086;48.116;11.580;2023-04-25T08:14:44;94597.00;;;21.20
14023;BMP180;7086;48.116;11.580;2023-04-25T08:17:16;94601.00;;;21.40
14023;BMP180;7086;48.116;11.580;2023-04-25T08:19:46;94576.00;;;21.40
14023;BMP180;7086;48.116;11.580;2023-04-25T08:22:13;94607.00;;;21.40
14023;BMP180;7086;48.116;11.580;2023-04-25T08:24:55;94587.00;;;21.60
14023;BMP180;7086;48.116;11.580;2023-04-25T08:27:25;94602.00;;;21.40
14023;BMP180;7086;48.116;11.580;2023-04-25T08:29:58;94614.00;;;21.60
14023;BMP180;7086;48.116;11.580;2023-04-25T08:32:36;94543.00;;;21.60
14023;BMP180;7086;48.116;11.580;2023-04-25T08:35:18;94596.00;;;21.80
14023;BMP180;7086;48.116;11.580;2023-04-25T08:37:49;94591.00;;;21.80
14023;BMP180;7086;48.116;11.580;2023-04-25T08:40:17;94605.00;;;21.80
14023;BMP180;7086;48.116;11.580;2023-04-25T08:42:52;94591.00;;;21.70
14023;BMP180;7086;48.116;11.580;2023-04-25T08:45:21;94609.00;;;21.60
14023;BMP180;7086;48.116;11.580;2023-04-25T08:47:51;94603.00;;;21.60
14023;BMP180;7086;48.116;11.580;2023-04-25T08:50:18;94598.00;;;21.70
14023;BMP180;7086;48.116;11.580;2023-04-25T08:52:48;94615.00;;;21.70
14023;BMP180;7086;48.116;11.580;2023-04-25T08:55:18;94587.00;;;21.60
14023;BMP180;7086;48.116;11.580;2023-04-25T08:57:46;94612.00;;;21.40
14023;BMP180;7086;48.116;11.580;2023-04-25T09:00:16;94597.00;;;21.50
14023;BMP180;7086;48.116;11.580;2023-04-25T09:02:46;94606.00;;;21.80
14023;BMP180;7086;48.116;11.580;2023-04-25T09:05:14;94606.00;;;22.00
14023;BMP180;7086;48.116;11.580;2023-04-25T09:07:40;94585.00;;;22.40
14023;BMP180;7086;48.116;11.580;2023-04-25T09:10:08;94609.00;;;22.80
14023;BMP180;7086;48.116;11.580;2023-04-25T09:12:35;94625.00;;;23.20
14023;BMP180;7086;48.116;11.580;2023-04-25T09:15:04;94590.00;;;23.70
14023;BMP180;7086;48.116;11.580;2023-04-25T09:17:32;94613.00;;;24.30
14023;BMP180;7086;48.116;11.580;2023-04-25T09:20:08;94618.00;;;24.80
14023;BMP180;7086;48.116;11.580;2023-04-25T09:22:37;94584.00;;;25.40
14023;BMP180;7086;48.116;11.580;2023-04-25T09:25:09;94602.00;;;25.70
14023;BMP180;7086;48.116;11.580;2023-04-25T09:27:49;94617.00;;;26.00
14023;BMP180;7086;48.116;11.580;2023-04-25T09:30:17;94608.00;;;26.10
14023;BMP180;7086;48.116;11.580;2023-04-25T09:32:45;94630.00;;;26.00
14023;BMP180;7086;48.116;11.580;2023-04-25T09:35:23;94629.00;;;25.80
14023;BMP180;7086;48.116;11.580;2023-04-25T09:37:51;94622.00;;;25.40
14023;BMP180;7086;48.116;11.580;2023-04-25T09:40:18;94626.00;;;24.80
14023;BMP180;7086;48.116;11.580;2023-04-25T09:42:44;94624.00;;;24.30
14023;BMP180;7086;48.116;11.580;2023-04-25T09:45:13;94618.00;;;23.80
14023;BMP180;7086;48.116;11.580;2023-04-25T09:47:40;94627.00;;;23.30
14023;BMP180;7086;48.116;11.580;2023-04-25T09:50:16;94626.00;;;22.90
14023;BMP180;7086;48.116;11.580;2023-04-25T09:52:46;94631.00;;;22.60
14023;BMP180;7086;48.116;11.580;2023-04-25T09:55:38;94627.00;;;22.40
14023;BMP180;7086;48.116;11.580;2023-04-25T09:58:07;94635.00;;;22.30
14023;BMP180;7086;48.116;11.580;2023-04-25T10:00:36;94633.00;;;22.10
14023;BMP180;7086;48.116;11.580;2023-04-25T10:03:05;94618.00;;;21.90
14023;BMP180;7086;48.116;11.580;2023-04-25T10:05:34;94644.00;;;21.70
14023;BMP180;7086;48.116;11.580;2023-04-25T10:08:03;94612.00;;;21.50
14023;BMP180;7086;48.116;11.580;2023-04-25T10:10:34;94638.00;;;21.30
14023;BMP180;7086;48.116;11.580;2023-04-25T10:13:04;94643.00;;;21.00
14023;BMP180;7086;48.116;11.580;2023-04-25T10:15:34;94612.00;;;20.80
14023;BMP180;7086;48.116;11.580;2023-04-25T10:18:03;94631.00;;;20.60
14023;BMP180;7086;48.116;11.580;2023-04-25T10:20:30;94640.00;;;20.50
14023;BMP180;7086;48.116;11.580;2023-04-25T10:23:07;94624.00;;;20.80
14023;BMP180;7086;48.116;11.580;2023-04-25T10:25:37;94607.00;;;21.40
14023;BMP180;7086;48.116;11.580;2023-04-25T10:28:06;94622.00;;;22.10
14023;BMP180;7086;48.116;11.580;2023-04-25T10:30:33;94617.00;;;22.70
14023;BMP180;7086;48.116;11.580;2023-04-25T10:32:59;94577.00;;;23.10
14023;BMP180;7086;48.116;11.580;2023-04-25T10:35:31;94625.00;;;23.10
14023;BMP180;7086;48.116;11.580;2023-04-25T10:38:05;94627.00;;;23.00
14023;BMP180;7086;48.116;11.580;2023-04-25T10:40:32;94655.00;;;22.80
14023;BMP180;7086;48.116;11.580;2023-04-25T10:46:14;94647.00;;;21.60
14023;BMP180;7086;48.116;11.580;2023-04-25T10:48:46;94654.00;;;20.90
14023;BMP180;7086;48.116;11.580;2023-04-25T10:51:19;94658.00;;;20.20
14023;BMP180;7086;48.116;11.580;2023-04-25T10:53:57;94660.00;;;19.60
14023;BMP180;7086;48.116;11.580;2023-04-25T10:56:26;94658.00;;;19.20
14023;BMP180;7086;48.116;11.580;2023-04-25T10:59:03;94673.00;;;18.70
14023;BMP180;7086;48.116;11.580;2023-04-25T11:01:36;94671.00;;;18.30
14023;BMP180;7086;48.116;11.580;2023-04-25T11:04:03;94664.00;;;18.10
14023;BMP180;7086;48.116;11.580;2023-04-25T11:06:37;94691.00;;;17.90
14023;BMP180;7086;48.116;11.580;2023-04-25T11:09:12;94678.00;;;17.70
14023;BMP180;7086;48.116;11.580;2023-04-25T11:11:43;94694.00;;;17.60
14023;BMP180;7086;48.116;11.580;2023-04-25T11:14:20;94693.00;;;17.50
14023;BMP180;7086;48.116;11.580;2023-04-25T11:16:47;94696.00;;;17.40
14023;BMP180;7086;48.116;11.580;2023-04-25T11:19:13;94611.00;;;17.40
14023;BMP180;7086;48.116;11.580;2023-04-25T11:21:40;94701.00;;;17.50
14023;BMP180;7086;48.116;11.580;2023-04-25T11:24:08;94707.00;;;17.50
14023;BMP180;7086;48.116;11.580;2023-04-25T11:26:39;94684.00;;;17.50
14023;BMP180;7086;48.116;11.580;2023-04-25T11:29:10;94714.00;;;17.40
14023;BMP180;7086;48.116;11.580;2023-04-25T11:31:37;94708.00;;;17.40
14023;BMP180;7086;48.116;11.580;2023-04-25T11:34:04;94691.00;;;17.30
14023;BMP180;7086;48.116;11.580;2023-04-25T11:36:31;94729.00;;;17.20
14023;BMP180;7086;48.116;11.580;2023-04-25T11:38:58;94748.00;;;17.00
14023;BMP180;7086;48.116;11.580;2023-04-25T11:41:26;94722.00;;;16.90
14023;BMP180;7086;48.116;11.580;2023-04-25T11:43:55;94717.00;;;16.80
14023;BMP180;7086;48.116;11.580;2023-04-25T11:46:24;94731.00;;;16.70
14023;BMP180;7086;48.116;11.580;2023-04-25T11:48:51;94739.00;;;16.50
14023;BMP180;7086;48.116;11.580;2023-04-25T11:51:18;94741.00;;;16.50
14023;BMP180;7086;48.116;11.580;2023-04-25T11:53:45;94757.00;;;16.50
14023;BMP180;7086;48.116;11.580;2023-04-25T11:56:18;94753.00;;;16.30
14023;BMP180;7086;48.116;11.580;2023-04-25T11:58:58;94752.00;;;16.40
14023;BMP180;7086;48.116;11.580;2023-04-25T12:01:31;94756.00;;;16.40
14023;BMP180;7086;48.116;11.580;2023-04-25T12:04:10;94758.00;;;16.30
14023;BMP180;7086;48.116;11.580;2023-04-25T12:06:38;94745.00;;;16.30
14023;BMP180;7086;48.116;11.580;2023-04-25T12:09:08;94750.00;;;16.20
14023;BMP180;7086;48.116;11.580;2023-04-25T12:11:41;94770.00;;;16.10
14023;BMP180;7086;48.116;11.580;2023-04-25T12:14:20;94760.00;;;16.00
14023;BMP180;7086;48.116;11.580;2023-04-25T12:16:48;94777.00;;;15.90
14023;BMP180;7086;48.116;11.580;2023-04-25T12:19:15;94752.00;;;15.80
14023;BMP180;7086;48.116;11.580;2023-04-25T12:21:43;94758.00;;;15.70
14023;BMP180;7086;48.116;11.580;2023-04-25T12:24:11;94779.00;;;15.60
14023;BMP180;7086;48.116;11.580;2023-04-25T12:26:52;94778.00;;;15.50
14023;BMP180;7086;48.116;11.580;2023-04-25T12:29:27;94778.00;;;15.50
14023;BMP180;7086;48.116;11.580;2023-04-25T12:31:56;94762.00;;;15.40
14023;BMP180;7086;48.116;11.580;2023-04-25T12:34:25;94775.00;;;15.40
14023;BMP180;7086;48.116;11.580;2023-04-25T12:36:52;94781.00;;;15.30
14023;BMP180;7086;48.116;11.580;2023-04-25T12:39:22;94772.00;;;15.20
14023;BMP180;7086;48.116;11.580;2023-04-25T12:41:56;94766.00;;;15.10
14023;BMP180;7086;48.116;11.580;2023-04-25T12:44:27;94768.00;;;15.10
14023;BMP180;7086;48.116;11.580;2023-04-25T12:46:54;94767.00;;;15.00
14023;BMP180;7086;48.116;11.580;2023-04-25T12:49:21;94768.00;;;15.20
14023;BMP180;7086;48.116;11.580;2023-04-25T12:51:49;94773.00;;;15.20
14023;BMP180;7086;48.116;11.580;2023-04-25T12:54:18;94771.00;;;15.30
14023;BMP180;7086;48.116;11.580;2023-04-25T12:56:46;94769.00;;;15.40
14023;BMP180;7086;48.116;11.580;2023-04-25T12:59:15;94770.00;;;15.40
14023;BMP180;7086;48.116;11.580;2023-04-25T13:01:45;94783.00;;;15.40
14023;BMP180;7086;48.116;11.580;2023-04-25T13:04:13;94788.00;;;15.30
14023;BMP180;7086;48.116;11.580;2023-04-25T13:06:42;94793.00;;;15.30
14023;BMP180;7086;48.116;11.580;2023-04-25T13:09:22;94788.00;;;15.20
14023;BMP180;7086;48.116;11.580;2023-04-25T13:11:49;94798.00;;;15.30
14023;BMP180;7086;48.116;11.580;2023-04-25T13:14:16;94795.00;;;15.10
14023;BMP180;7086;48.116;11.580;2023-04-25T13:16:44;94800.00;;;15.20
14023;BMP180;7086;48.116;11.580;2023-04-25T13:19:11;94769.00;;;15.10
14023;BMP180;7086;48.116;11.580;2023-04-25T13:21:38;94804.00;;;15.10
14023;BMP180;7086;48.116;11.580;2023-04-25T13:24:05;94805.00;;;15.10
14023;BMP180;7086;48.116;11.580;2023-04-25T13:26:32;94810.00;;;15.00
14023;BMP180;7086;48.116;11.580;2023-04-25T13:28:59;94814.00;;;15.00
14023;BMP180;7086;48.116;11.580;2023-04-25T13:31:29;94812.00;;;14.90
14023;BMP180;7086;48.116;11.580;2023-04-25T13:33:57;94766.00;;;14.90
14023;BMP180;7086;48.116;11.580;2023-04-25T13:36:24;94789.00;;;14.90
14023;BMP180;7086;48.116;11.580;2023-04-25T13:38:51;94817.00;;;14.70
14023;BMP180;7086;48.116;11.580;2023-04-25T13:41:18;94813.00;;;14.90
14023;BMP180;7086;48.116;11.580;2023-04-25T13:43:45;94816.00;;;14.80
14023;BMP180;7086;48.116;11.580;2023-04-25T13:46:14;94797.00;;;14.80
14023;BMP180;7086;48.116;11.580;2023-04-25T13:48:43;94824.00;;;14.80
14023;BMP180;7086;48.116;11.580;2023-04-25T13:51:16;94830.00;;;14.70
14023;BMP180;7086;48.116;11.580;2023-04-25T13:53:43;94831.00;;;14.50
14023;BMP180;7086;48.116;11.580;2023-04-25T13:56:10;94833.00;;;14.40
14023;BMP180;7086;48.116;11.580;2023-04-25T13:58:38;94835.00;;;14.20
14023;BMP180;7086;48.116;11.580;2023-04-25T14:01:04;94822.00;;;14.10
14023;BMP180;7086;48.116;11.580;2023-04-25T14:03:31;94754.00;;;14.00
14023;BMP180;7086;48.116;11.580;2023-04-25T14:05:58;94879.00;;;13.90
14023;BMP180;7086;48.116;11.580;2023-04-25T14:08:28;94845.00;;;13.80
14023;BMP180;7086;48.116;11.580;2023-04-25T14:10:55;94849.00;;;13.70
14023;BMP180;7086;48.116;11.580;2023-04-25T14:13:22;94853.00;;;13.70
14023;BMP180;7086;48.116;11.580;2023-04-25T14:15:49;94851.00;;;13.70
14023;BMP180;7086;48.116;11.580;2023-04-25T14:18:17;94812.00;;;13.70